Time;durP1;ratioP1;P1;durP2;ratioP2;P2;SDS_P1;SDS_P2;PMS_P1;PMS_P2;Temp;Humidity;BMP_temperature;BMP_pressure;BME280_temperature;BME280_humidity;BME280_pressure;Samples;Min_cycle;Max_cycle;Signal;HPM_P1;HPM_P2
2023/12/12 00:01:49;;;;;;;6.73;2.07;;;7.30;99.90;;;;;;5037273;28;20264;-85
2023/12/12 00:04:15;;;;;;;7.77;2.00;;;7.30;99.90;;;;;;5055000;28;20202;-86
2023/12/12 00:06:40;;;;;;;6.63;2.30;;;7.30;99.90;;;;;;5036955;28;20198;-85
2023/12/12 00:09:06;;;;;;;8.23;2.07;;;7.20;99.90;;;;;;5023976;28;20219;-85
2023/12/12 00:11:32;;;;;;;5.50;2.03;;;7.20;99.90;;;;;;5042943;28;20242;-85
2023/12/12 00:13:57;;;;;;;6.27;2.30;;;7.20;99.90;;;;;;5054976;28;20196;-85
2023/12/12 00:16:23;;;;;;;7.43;1.97;;;7.20;99.90;;;;;;5036982;28;20600;-85
2023/12/12 00:18:48;;;;;;;10.00;2.30;;;7.20;99.90;;;;;;5038190;28;20182;-85
2023/12/12 00:21:14;;;;;;;6.93;1.93;;;7.20;99.90;;;;;;5036355;28;20234;-86
2023/12/12 00:23:40;;;;;;;7.00;1.87;;;7.20;99.90;;;;;;5054568;28;20180;-87
2023/12/12 00:26:07;;;;;;;7.37;1.90;;;7.10;99.90;;;;;;5036440;28;20251;-85
2023/12/12 00:28:34;;;;;;;7.60;1.73;;;7.10;99.90;;;;;;5036327;28;20269;-85
2023/12/12 00:31:01;;;;;;;6.20;2.20;;;7.10;99.90;;;;;;5028849;28;20180;-85
2023/12/12 00:33:28;;;;;;;6.27;2.10;;;7.10;99.90;;;;;;5036260;28;20200;-85
2023/12/12 00:35:53;;;;;;;11.03;2.27;;;7.10;99.90;;;;;;5035746;28;20208;-85
2023/12/12 00:38:19;;;;;;;7.13;2.40;;;7.10;99.90;;;;;;5054351;28;20263;-86
2023/12/12 00:40:52;;;;;;;6.77;2.33;;;7.10;99.90;;;;;;5051790;28;20171;-85
2023/12/12 00:43:17;;;;;;;9.60;2.10;;;7.10;99.90;;;;;;5031400;28;20189;-86
2023/12/12 00:45:43;;;;;;;9.17;2.00;;;7.10;99.90;;;;;;5026838;28;20549;-87
2023/12/12 00:48:08;;;;;;;9.07;2.33;;;7.00;99.90;;;;;;5042642;28;20196;-85
2023/12/12 00:50:34;;;;;;;7.30;1.83;;;7.10;99.90;;;;;;5042071;28;20187;-85
2023/12/12 00:52:59;;;;;;;6.80;2.17;;;7.10;99.90;;;;;;5035875;28;20199;-85
2023/12/12 00:55:25;;;;;;;8.87;1.70;;;7.10;99.90;;;;;;5053945;28;20571;-87
2023/12/12 00:57:51;;;;;;;10.03;2.20;;;7.10;99.90;;;;;;5035698;28;20236;-85
2023/12/12 01:00:17;;;;;;;8.43;2.40;;;7.10;99.90;;;;;;5053407;28;20176;-85
2023/12/12 01:02:42;;;;;;;8.43;2.60;;;7.00;99.90;;;;;;5052143;28;20177;-85
2023/12/12 01:05:08;;;;;;;8.10;2.13;;;7.00;99.90;;;;;;5047193;28;20168;-85
2023/12/12 01:07:34;;;;;;;8.43;2.60;;;6.90;99.90;;;;;;5035373;28;20218;-86
2023/12/12 01:09:59;;;;;;;11.33;2.80;;;7.00;99.90;;;;;;5035395;28;20173;-85
2023/12/12 01:12:25;;;;;;;7.67;2.57;;;6.90;99.90;;;;;;5053756;28;20181;-85
2023/12/12 01:14:50;;;;;;;9.07;3.33;;;6.80;99.90;;;;;;5035888;28;20207;-85
2023/12/12 01:17:16;;;;;;;10.60;3.13;;;6.80;99.90;;;;;;5053399;28;20288;-86
2023/12/12 01:19:41;;;;;;;9.97;3.00;;;6.80;99.90;;;;;;5034782;28;20193;-85
2023/12/12 01:22:07;;;;;;;13.60;2.70;;;6.80;99.90;;;;;;5053300;28;20180;-85
2023/12/12 01:24:34;;;;;;;10.73;3.33;;;6.80;99.90;;;;;;5035500;28;20181;-85
2023/12/12 01:27:00;;;;;;;6.43;1.93;;;6.70;99.90;;;;;;5035082;28;20642;-86
2023/12/12 01:29:25;;;;;;;11.27;2.73;;;6.70;99.90;;;;;;5035110;28;20303;-88
2023/12/12 01:31:51;;;;;;;14.87;2.90;;;6.70;99.90;;;;;;5035819;28;20182;-85
2023/12/12 01:34:17;;;;;;;9.60;2.83;;;6.60;99.90;;;;;;5035469;28;20235;-85
2023/12/12 01:36:42;;;;;;;9.10;2.30;;;6.60;99.90;;;;;;5052899;28;20222;-88
2023/12/12 01:39:08;;;;;;;18.17;10.63;;;6.50;99.90;;;;;;5034900;28;20210;-85
2023/12/12 01:41:34;;;;;;;10.67;2.63;;;6.50;99.90;;;;;;5044406;28;20178;-85
2023/12/12 01:43:59;;;;;;;10.17;2.37;;;6.50;99.90;;;;;;5023249;28;20177;-85
2023/12/12 01:46:25;;;;;;;7.97;2.40;;;6.50;99.90;;;;;;5032667;28;20182;-85
2023/12/12 01:48:51;;;;;;;9.83;2.70;;;6.40;99.90;;;;;;5052088;28;20240;-88
2023/12/12 01:51:17;;;;;;;11.47;2.63;;;6.50;99.90;;;;;;5034581;28;20206;-85
2023/12/12 01:53:46;;;;;;;11.37;2.60;;;6.50;99.90;;;;;;5034864;28;20214;-85
2023/12/12 01:56:13;;;;;;;8.13;2.63;;;6.50;99.90;;;;;;5034482;28;20273;-85
2023/12/12 01:58:40;;;;;;;6.40;2.23;;;6.50;99.90;;;;;;5050394;28;20656;-85
2023/12/12 02:01:06;;;;;;;11.73;2.43;;;6.50;99.90;;;;;;5052416;28;20171;-85
2023/12/12 02:03:35;;;;;;;10.70;2.63;;;6.50;99.90;;;;;;5052659;28;20190;-87
2023/12/12 02:06:02;;;;;;;9.17;2.70;;;6.50;99.90;;;;;;5052582;28;20185;-88
2023/12/12 02:08:28;;;;;;;8.83;2.20;;;6.50;99.90;;;;;;5034643;28;20209;-85
2023/12/12 02:10:54;;;;;;;8.80;2.43;;;6.50;99.90;;;;;;5034431;28;20238;-85
2023/12/12 02:13:20;;;;;;;7.93;2.17;;;6.50;99.90;;;;;;5019732;28;20205;-85
2023/12/12 02:15:47;;;;;;;10.17;2.50;;;6.60;99.90;;;;;;5015271;28;20623;-88
2023/12/12 02:18:16;;;;;;;8.23;2.00;;;6.60;99.90;;;;;;5014939;28;20203;-85
2023/12/12 02:20:42;;;;;;;7.53;2.60;;;6.60;99.90;;;;;;5033304;28;20206;-85
2023/12/12 02:23:09;;;;;;;9.77;2.40;;;6.60;99.90;;;;;;5052550;28;20209;-85
2023/12/12 02:25:35;;;;;;;9.87;2.80;;;6.60;99.90;;;;;;5034788;28;20185;-85
2023/12/12 02:28:01;;;;;;;11.80;2.60;;;6.60;99.90;;;;;;5098286;22;20237;-89
2023/12/12 02:30:27;;;;;;;12.70;2.73;;;6.60;99.90;;;;;;5030268;28;20269;-92
2023/12/12 02:32:53;;;;;;;9.97;2.47;;;6.70;99.90;;;;;;5030420;28;20283;-92
2023/12/12 02:35:19;;;;;;;13.63;2.77;;;6.70;99.90;;;;;;5038849;28;20183;-91
2023/12/12 02:37:44;;;;;;;15.13;3.47;;;6.70;99.90;;;;;;5048806;28;20196;-91
2023/12/12 02:40:10;;;;;;;9.70;2.40;;;6.70;99.90;;;;;;5049965;28;20175;-91
2023/12/12 02:42:35;;;;;;;14.57;3.07;;;6.70;99.90;;;;;;5041689;28;20212;-91
2023/12/12 02:45:01;;;;;;;10.20;2.60;;;6.70;99.90;;;;;;5030989;28;20311;-91
2023/12/12 02:47:27;;;;;;;11.30;3.30;;;6.70;99.90;;;;;;5045122;28;20215;-91
2023/12/12 02:49:52;;;;;;;8.40;2.20;;;6.70;99.90;;;;;;5035378;28;20195;-91
2023/12/12 02:52:18;;;;;;;10.00;2.40;;;6.70;99.90;;;;;;5042642;28;20190;-91
2023/12/12 02:54:43;;;;;;;10.47;2.40;;;6.80;99.90;;;;;;5035797;28;20323;-92
2023/12/12 02:57:09;;;;;;;10.17;2.67;;;6.80;99.90;;;;;;5044460;28;20223;-92
2023/12/12 02:59:35;;;;;;;8.10;2.60;;;6.80;99.90;;;;;;5039409;28;20191;-91
2023/12/12 03:02:00;;;;;;;10.67;2.83;;;6.80;99.90;;;;;;5051257;28;20739;-91
2023/12/12 03:04:26;;;;;;;7.77;2.27;;;6.80;99.90;;;;;;5044349;28;20177;-91
2023/12/12 03:06:51;;;;;;;6.83;2.30;;;6.80;99.90;;;;;;5045960;28;20210;-91
2023/12/12 03:09:17;;;;;;;9.67;2.13;;;6.80;99.90;;;;;;5046608;28;20195;-91
2023/12/12 03:11:44;;;;;;;9.47;2.60;;;6.80;99.90;;;;;;5045926;28;20193;-91
2023/12/12 03:14:10;;;;;;;8.63;2.50;;;6.80;99.90;;;;;;5042815;28;20204;-91
2023/12/12 03:16:35;;;;;;;10.33;2.20;;;6.80;99.90;;;;;;5043480;28;20546;-90
2023/12/12 03:19:01;;;;;;;8.13;2.13;;;6.80;99.90;;;;;;5047530;28;20180;-91
2023/12/12 03:21:27;;;;;;;8.20;2.40;;;6.80;99.90;;;;;;5047052;28;20213;-91
2023/12/12 03:23:53;;;;;;;8.07;2.73;;;6.80;99.90;;;;;;5043716;28;20226;-92
2023/12/12 03:26:19;;;;;;;11.90;2.67;;;6.80;99.90;;;;;;5044119;28;20183;-91
2023/12/12 03:28:44;;;;;;;14.00;2.67;;;6.80;99.90;;;;;;5052160;28;20235;-91
2023/12/12 03:31:10;;;;;;;12.03;2.70;;;6.80;99.90;;;;;;5048939;28;20234;-91
2023/12/12 03:33:35;;;;;;;11.50;2.70;;;6.80;99.90;;;;;;5046113;28;20235;-91
2023/12/12 03:36:06;;;;;;;11.67;2.70;;;6.90;99.90;;;;;;5047471;28;20207;-92
2023/12/12 03:38:32;;;;;;;10.40;2.20;;;6.80;99.90;;;;;;5046214;28;20205;-91
2023/12/12 03:40:57;;;;;;;9.00;2.60;;;6.90;99.90;;;;;;5042248;28;20529;-91
2023/12/12 03:43:23;;;;;;;11.33;2.60;;;6.90;99.90;;;;;;5041085;28;20175;-91
2023/12/12 03:45:48;;;;;;;9.87;2.50;;;6.80;99.90;;;;;;5043832;28;20282;-91
2023/12/12 03:48:14;;;;;;;11.67;2.20;;;6.80;99.90;;;;;;5043828;28;20207;-91
2023/12/12 03:50:39;;;;;;;8.03;2.33;;;6.80;99.90;;;;;;5042262;28;20178;-91
2023/12/12 03:53:05;;;;;;;9.53;2.00;;;6.80;99.90;;;;;;5047188;28;20553;-91
2023/12/12 03:55:31;;;;;;;13.17;2.40;;;6.80;99.90;;;;;;5047215;28;20198;-91
2023/12/12 03:57:56;;;;;;;8.63;2.70;;;6.80;99.90;;;;;;5042188;28;20237;-91
2023/12/12 04:00:22;;;;;;;8.93;2.47;;;6.70;99.90;;;;;;5042934;28;20238;-91
2023/12/12 04:02:47;;;;;;;8.67;2.40;;;6.70;99.90;;;;;;5045322;28;20238;-91
2023/12/12 04:05:13;;;;;;;12.40;2.63;;;6.70;99.90;;;;;;5040179;28;20188;-91
2023/12/12 04:07:39;;;;;;;9.53;2.20;;;6.70;99.90;;;;;;5042795;28;20212;-91
2023/12/12 04:10:07;;;;;;;12.37;2.83;;;6.70;99.90;;;;;;5045215;28;20188;-91
2023/12/12 04:12:34;;;;;;;10.83;2.30;;;6.70;99.90;;;;;;5045642;28;20264;-90
2023/12/12 04:14:59;;;;;;;9.30;1.93;;;6.70;99.90;;;;;;5051337;28;20214;-91
2023/12/12 04:17:25;;;;;;;12.23;2.60;;;6.70;99.90;;;;;;5050501;28;20203;-92
2023/12/12 04:19:51;;;;;;;8.10;2.70;;;6.70;99.90;;;;;;5045027;28;20177;-91
2023/12/12 04:22:16;;;;;;;7.13;2.53;;;6.70;99.90;;;;;;5046587;28;20187;-91
2023/12/12 04:24:42;;;;;;;9.93;2.33;;;6.70;99.90;;;;;;5043662;28;20191;-91
2023/12/12 04:27:07;;;;;;;6.17;2.40;;;6.70;99.90;;;;;;5041489;28;20224;-91
2023/12/12 04:29:33;;;;;;;10.77;2.70;;;6.60;99.90;;;;;;5042798;28;20187;-90
2023/12/12 04:31:59;;;;;;;10.47;2.70;;;6.60;99.90;;;;;;5046423;28;20190;-91
2023/12/12 04:34:24;;;;;;;7.40;2.20;;;6.70;99.90;;;;;;5046352;28;20211;-91
2023/12/12 04:36:50;;;;;;;13.07;2.93;;;6.70;99.90;;;;;;5042599;28;20203;-91
2023/12/12 04:39:17;;;;;;;8.97;2.13;;;6.70;99.90;;;;;;5047424;28;20195;-90
2023/12/12 04:41:43;;;;;;;6.33;2.27;;;6.80;99.90;;;;;;5043203;28;20558;-91
2023/12/12 04:44:09;;;;;;;12.87;2.93;;;6.70;99.90;;;;;;5041589;28;20283;-91
2023/12/12 04:46:35;;;;;;;9.27;2.30;;;6.70;99.90;;;;;;5041813;28;20203;-90
2023/12/12 04:49:02;;;;;;;12.83;2.30;;;6.70;99.90;;;;;;5046260;28;20565;-90
2023/12/12 04:51:28;;;;;;;11.53;3.00;;;6.70;99.90;;;;;;5044957;28;20196;-91
2023/12/12 04:53:54;;;;;;;11.00;2.70;;;6.60;99.90;;;;;;5045271;28;20300;-91
2023/12/12 04:56:19;;;;;;;6.53;1.90;;;6.70;99.90;;;;;;5046904;28;20186;-92
2023/12/12 04:58:46;;;;;;;10.20;2.60;;;6.70;99.90;;;;;;5044196;28;20210;-91
2023/12/12 05:01:14;;;;;;;7.60;2.43;;;6.70;99.90;;;;;;5046919;28;20185;-91
2023/12/12 05:03:40;;;;;;;10.30;2.33;;;6.70;99.90;;;;;;5042229;28;20526;-91
2023/12/12 05:06:07;;;;;;;7.17;2.70;;;6.60;99.90;;;;;;5045001;28;20191;-91
2023/12/12 05:08:33;;;;;;;12.90;2.70;;;6.60;99.90;;;;;;5045259;28;20588;-91
2023/12/12 05:10:59;;;;;;;9.27;2.50;;;6.70;99.90;;;;;;5034279;28;20180;-92
2023/12/12 05:13:25;;;;;;;11.03;2.87;;;6.60;99.90;;;;;;5034575;28;20211;-92
2023/12/12 05:15:50;;;;;;;11.90;3.10;;;6.60;99.90;;;;;;5045507;28;20183;-92
2023/12/12 05:18:16;;;;;;;10.57;2.80;;;6.60;99.90;;;;;;5054069;28;20244;-91
2023/12/12 05:20:42;;;;;;;9.00;2.57;;;6.60;99.90;;;;;;5044106;28;20273;-84
2023/12/12 05:23:07;;;;;;;11.80;2.77;;;6.60;99.90;;;;;;5045879;28;20177;-84
2023/12/12 05:25:33;;;;;;;8.40;2.80;;;6.70;99.90;;;;;;5045825;28;20180;-83
2023/12/12 05:27:59;;;;;;;5.73;2.20;;;6.70;99.90;;;;;;5049211;28;20232;-85
2023/12/12 05:30:25;;;;;;;9.73;2.60;;;6.70;99.90;;;;;;5035073;28;20682;-84
2023/12/12 05:32:50;;;;;;;9.97;2.70;;;6.70;99.90;;;;;;5045202;28;20179;-85
2023/12/12 05:35:16;;;;;;;11.77;2.73;;;6.60;99.90;;;;;;5052826;28;20197;-85
2023/12/12 05:37:42;;;;;;;10.47;2.60;;;6.60;99.90;;;;;;5043245;28;20194;-85
2023/12/12 05:40:08;;;;;;;16.40;2.80;;;6.60;99.90;;;;;;5042024;28;20186;-86
2023/12/12 05:42:33;;;;;;;11.63;2.73;;;6.60;99.90;;;;;;5041755;28;20209;-87
2023/12/12 05:44:59;;;;;;;10.90;2.63;;;6.80;99.90;;;;;;5040115;28;20216;-88
2023/12/12 05:47:25;;;;;;;10.07;2.80;;;6.70;99.90;;;;;;5041283;28;20262;-88
2023/12/12 05:49:50;;;;;;;8.97;3.00;;;6.70;99.90;;;;;;5042048;28;20668;-89
2023/12/12 05:52:16;;;;;;;12.43;2.70;;;6.70;99.90;;;;;;5043304;28;20717;-90
2023/12/12 05:54:42;;;;;;;11.07;2.70;;;6.60;99.90;;;;;;5042388;28;20205;-90
2023/12/12 05:57:08;;;;;;;12.67;2.60;;;6.60;99.90;;;;;;5038131;28;20214;-90
2023/12/12 05:59:34;;;;;;;11.60;3.13;;;6.60;99.90;;;;;;5043008;28;20214;-90
2023/12/12 06:02:00;;;;;;;13.27;2.63;;;6.50;99.90;;;;;;5041331;28;20550;-91
2023/12/12 06:04:27;;;;;;;9.83;2.80;;;6.50;99.90;;;;;;5040490;28;20207;-90
2023/12/12 06:06:52;;;;;;;13.07;2.67;;;6.50;99.90;;;;;;5043938;28;20259;-90
2023/12/12 06:09:18;;;;;;;9.20;2.40;;;6.50;99.90;;;;;;5044410;28;20181;-91
2023/12/12 06:11:44;;;;;;;11.17;2.70;;;6.50;99.90;;;;;;5043027;28;20278;-91
2023/12/12 06:14:09;;;;;;;11.20;2.83;;;6.50;99.90;;;;;;5038294;28;20207;-90
2023/12/12 06:16:35;;;;;;;8.23;2.17;;;6.50;99.90;;;;;;5039949;28;20229;-89
2023/12/12 06:19:04;;;;;;;9.93;2.53;;;6.50;99.90;;;;;;5044291;28;20183;-89
2023/12/12 06:21:33;;;;;;;11.13;3.40;;;6.50;99.90;;;;;;5042985;28;20174;-88
2023/12/12 06:24:03;;;;;;;18.20;6.50;;;6.60;99.90;;;;;;5044802;28;20193;-86
2023/12/12 06:26:31;;;;;;;21.27;8.20;;;6.60;99.90;;;;;;5044948;28;20233;-87
2023/12/12 06:28:57;;;;;;;25.03;9.00;;;6.60;99.90;;;;;;5041004;28;20194;-84
2023/12/12 06:31:23;;;;;;;16.33;5.20;;;6.60;99.90;;;;;;5038068;28;20189;-86
2023/12/12 06:33:50;;;;;;;15.40;3.57;;;6.60;99.90;;;;;;5041528;28;20706;-85
2023/12/12 06:36:16;;;;;;;9.43;2.87;;;6.60;99.90;;;;;;5051887;28;20175;-86
2023/12/12 06:38:44;;;;;;;14.10;3.40;;;6.60;99.90;;;;;;5042022;28;20221;-89
2023/12/12 06:41:10;;;;;;;11.23;3.37;;;6.60;99.90;;;;;;5045057;28;20178;-88
2023/12/12 06:43:35;;;;;;;9.77;3.00;;;6.70;99.90;;;;;;5051992;28;20174;-87
2023/12/12 06:46:02;;;;;;;13.23;3.50;;;6.70;99.90;;;;;;5050527;28;20181;-85
2023/12/12 06:48:27;;;;;;;9.53;2.90;;;6.60;99.90;;;;;;5051648;28;20206;-88
2023/12/12 06:50:53;;;;;;;12.93;3.40;;;6.60;99.90;;;;;;5041688;28;20571;-87
2023/12/12 06:53:19;;;;;;;14.13;3.97;;;6.60;99.90;;;;;;5050394;28;20240;-89
2023/12/12 06:55:46;;;;;;;12.60;3.53;;;6.60;99.90;;;;;;5050786;28;20170;-89
2023/12/12 06:58:11;;;;;;;9.67;2.80;;;6.60;99.90;;;;;;5050790;28;20190;-87
2023/12/12 07:00:40;;;;;;;14.93;3.97;;;6.60;99.90;;;;;;5050091;28;20256;-89
2023/12/12 07:03:05;;;;;;;14.43;3.73;;;6.60;99.90;;;;;;5050523;28;20219;-91
2023/12/12 07:05:31;;;;;;;13.87;2.93;;;6.60;99.90;;;;;;5051702;28;20260;-88
2023/12/12 07:07:56;;;;;;;11.37;3.00;;;6.60;99.90;;;;;;5051330;28;20289;-89
2023/12/12 07:10:22;;;;;;;8.70;3.13;;;6.60;99.90;;;;;;5051296;28;20181;-89
2023/12/12 07:12:48;;;;;;;11.07;3.10;;;6.60;99.90;;;;;;5051596;28;20166;-90
2023/12/12 07:15:13;;;;;;;14.83;4.00;;;6.60;99.90;;;;;;5051664;28;20677;-89
2023/12/12 07:17:39;;;;;;;15.80;3.43;;;6.60;99.90;;;;;;5048523;28;20190;-89
2023/12/12 07:20:05;;;;;;;19.40;4.07;;;6.60;99.90;;;;;;5049272;28;20163;-88
2023/12/12 07:22:31;;;;;;;11.97;3.40;;;6.70;99.90;;;;;;5050158;28;20174;-88
2023/12/12 07:24:56;;;;;;;15.13;3.73;;;6.70;99.90;;;;;;5051613;28;20176;-89
2023/12/12 07:27:22;;;;;;;11.97;3.70;;;6.70;99.90;;;;;;5050193;28;20274;-89
2023/12/12 07:29:47;;;;;;;10.50;3.60;;;6.70;99.90;;;;;;5049498;28;20621;-89
2023/12/12 07:32:13;;;;;;;14.87;4.03;;;6.70;99.90;;;;;;5050142;28;20552;-89
2023/12/12 07:34:38;;;;;;;14.43;3.40;;;6.70;99.90;;;;;;5050007;28;20229;-89
2023/12/12 07:37:05;;;;;;;11.17;4.07;;;6.60;99.90;;;;;;5051485;28;20194;-89
2023/12/12 07:39:31;;;;;;;13.60;3.90;;;6.70;99.90;;;;;;5049834;28;20196;-89
2023/12/12 07:41:57;;;;;;;15.10;3.90;;;6.70;99.90;;;;;;5050024;28;20238;-89
2023/12/12 07:44:23;;;;;;;11.20;3.50;;;6.60;99.90;;;;;;5052326;28;20182;-90
2023/12/12 07:46:49;;;;;;;17.27;3.67;;;6.70;99.90;;;;;;5053641;28;20199;-89
2023/12/12 07:49:15;;;;;;;15.27;3.80;;;6.70;99.90;;;;;;5054642;28;20233;-89
2023/12/12 07:51:40;;;;;;;15.33;3.77;;;6.70;99.90;;;;;;5054419;28;20185;-88
2023/12/12 07:54:06;;;;;;;11.97;3.50;;;6.70;99.90;;;;;;5053407;28;20301;-89
2023/12/12 07:56:32;;;;;;;15.10;3.70;;;6.80;99.90;;;;;;5054642;28;20170;-88
2023/12/12 07:58:57;;;;;;;9.07;3.40;;;6.80;99.90;;;;;;5053447;28;20187;-88
2023/12/12 08:01:23;;;;;;;12.23;3.37;;;6.80;99.90;;;;;;5053052;28;20226;-89
2023/12/12 08:03:49;;;;;;;13.93;3.70;;;6.80;99.90;;;;;;5054545;28;20175;-89
2023/12/12 08:06:15;;;;;;;9.67;3.10;;;6.90;99.90;;;;;;5053282;28;20172;-89
2023/12/12 08:08:41;;;;;;;14.37;3.80;;;6.80;99.90;;;;;;5054727;28;20283;-89
2023/12/12 08:11:15;;;;;;;15.47;3.10;;;6.90;99.90;;;;;;5052923;28;20183;-89
2023/12/12 08:13:40;;;;;;;13.27;3.83;;;6.90;99.90;;;;;;5054522;28;20293;-89
2023/12/12 08:16:07;;;;;;;10.50;3.57;;;6.90;99.90;;;;;;5053281;28;20599;-90
2023/12/12 08:18:32;;;;;;;12.17;3.10;;;6.90;99.90;;;;;;5053005;28;20199;-89
2023/12/12 08:20:58;;;;;;;7.43;2.77;;;7.00;99.90;;;;;;5052647;28;20191;-89
2023/12/12 08:23:23;;;;;;;12.07;2.90;;;7.00;99.90;;;;;;5053286;28;20563;-90
2023/12/12 08:25:49;;;;;;;12.17;3.13;;;7.00;99.90;;;;;;5053096;28;20175;-89
2023/12/12 08:28:15;;;;;;;14.90;3.50;;;7.00;99.90;;;;;;5113446;22;20227;-82
2023/12/12 08:30:41;;;;;;;9.87;3.10;;;6.90;99.90;;;;;;5053755;28;20692;-83
2023/12/12 08:33:06;;;;;;;10.47;3.37;;;7.00;99.90;;;;;;5036351;28;20171;-83
2023/12/12 08:35:32;;;;;;;12.97;3.33;;;7.00;99.90;;;;;;5053951;28;20204;-83
2023/12/12 08:37:57;;;;;;;12.77;3.60;;;7.00;99.90;;;;;;5054480;28;20216;-83
2023/12/12 08:40:23;;;;;;;14.97;3.17;;;7.10;99.90;;;;;;5053689;28;20168;-83
2023/12/12 08:42:48;;;;;;;9.17;2.73;;;7.10;99.90;;;;;;5036176;28;20187;-83
2023/12/12 08:45:14;;;;;;;7.83;2.67;;;7.20;99.90;;;;;;5054066;28;20258;-83
2023/12/12 08:47:40;;;;;;;12.90;3.20;;;7.40;99.90;;;;;;5054023;28;20211;-82
2023/12/12 08:50:06;;;;;;;13.27;3.20;;;7.40;99.90;;;;;;5053379;28;20177;-83
2023/12/12 08:52:31;;;;;;;7.90;2.80;;;7.50;99.90;;;;;;5036139;28;20188;-82
2023/12/12 08:54:57;;;;;;;10.40;2.80;;;7.50;99.90;;;;;;5035189;28;20213;-83
2023/12/12 08:57:23;;;;;;;14.10;3.40;;;7.60;99.90;;;;;;5035941;28;20285;-83
2023/12/12 08:59:49;;;;;;;11.80;3.47;;;7.70;99.90;;;;;;5035628;28;20183;-82
2023/12/12 09:02:16;;;;;;;11.83;2.70;;;7.70;99.90;;;;;;5036082;28;20183;-83
2023/12/12 09:04:41;;;;;;;9.70;2.70;;;7.80;99.90;;;;;;5035611;28;20204;-82
2023/12/12 09:07:07;;;;;;;11.60;3.07;;;7.80;99.90;;;;;;5035888;28;20265;-83
2023/12/12 09:09:32;;;;;;;15.40;3.07;;;7.90;99.90;;;;;;5035311;28;20188;-83
2023/12/12 09:12:00;;;;;;;16.27;3.43;;;8.00;99.90;;;;;;5035847;28;20653;-83
2023/12/12 09:14:27;;;;;;;8.17;2.83;;;8.00;99.90;;;;;;5053539;28;20790;-83
2023/12/12 09:16:53;;;;;;;10.93;3.17;;;8.00;99.90;;;;;;5055543;28;20186;-83
2023/12/12 09:19:19;;;;;;;14.77;3.03;;;8.10;99.90;;;;;;5035190;28;20295;-83
2023/12/12 09:21:45;;;;;;;13.23;2.90;;;8.10;99.90;;;;;;5053178;28;20180;-83
2023/12/12 09:24:10;;;;;;;10.50;3.03;;;8.10;99.90;;;;;;5053333;28;20214;-83
2023/12/12 09:26:36;;;;;;;10.57;2.80;;;8.20;99.90;;;;;;5035463;28;20193;-82
2023/12/12 09:29:01;;;;;;;14.50;2.87;;;8.20;99.90;;;;;;5052900;28;20311;-83
2023/12/12 09:31:28;;;;;;;8.83;3.17;;;8.20;99.90;;;;;;5052609;28;20177;-83
2023/12/12 09:33:55;;;;;;;13.93;3.30;;;8.30;99.90;;;;;;5053104;28;20200;-83
2023/12/12 09:36:21;;;;;;;11.17;3.10;;;8.20;99.90;;;;;;5053281;28;20169;-83
2023/12/12 09:38:46;;;;;;;10.67;2.83;;;8.00;99.90;;;;;;5035016;28;20242;-83
2023/12/12 09:41:22;;;;;;;9.77;3.33;;;7.90;99.90;;;;;;5052622;28;20180;-83
2023/12/12 09:43:48;;;;;;;11.13;3.13;;;7.90;99.90;;;;;;5053331;28;20181;-83
2023/12/12 09:46:16;;;;;;;12.30;2.83;;;7.90;99.90;;;;;;5053231;28;20213;-83
2023/12/12 09:48:47;;;;;;;9.27;3.00;;;7.90;99.90;;;;;;5053025;28;20288;-84
2023/12/12 09:51:17;;;;;;;9.87;3.13;;;7.90;99.90;;;;;;5034886;28;20185;-81
2023/12/12 09:53:46;;;;;;;10.30;3.07;;;8.10;99.90;;;;;;5035024;28;20220;-83
2023/12/12 09:56:16;;;;;;;13.60;3.30;;;8.20;99.90;;;;;;5052734;28;20269;-84
2023/12/12 09:58:45;;;;;;;13.00;3.47;;;8.10;99.90;;;;;;5034825;28;20335;-83
2023/12/12 10:01:11;;;;;;;10.23;2.77;;;8.10;99.90;;;;;;5034367;28;20176;-83
2023/12/12 10:03:38;;;;;;;14.43;3.47;;;8.30;99.90;;;;;;5034735;28;20182;-83
2023/12/12 10:06:08;;;;;;;12.97;3.03;;;8.40;99.90;;;;;;5052687;28;20182;-83
2023/12/12 10:08:37;;;;;;;16.07;3.07;;;8.60;99.90;;;;;;5051525;28;20209;-84
2023/12/12 10:11:05;;;;;;;8.97;2.90;;;8.70;99.90;;;;;;5034228;28;20189;-83
2023/12/12 10:13:46;;;;;;;15.33;3.00;;;8.60;99.90;;;;;;5052192;28;20212;-82
2023/12/12 10:16:13;;;;;;;8.63;2.23;;;8.60;99.90;;;;;;5034866;28;20169;-83
2023/12/12 10:18:38;;;;;;;13.57;3.00;;;8.60;99.90;;;;;;5052476;28;20274;-82
2023/12/12 10:21:15;;;;;;;8.37;2.50;;;8.60;99.90;;;;;;5034150;28;20206;-83
2023/12/12 10:23:46;;;;;;;8.73;2.83;;;8.70;99.90;;;;;;5034247;28;20796;-82
2023/12/12 10:26:13;;;;;;;11.53;2.73;;;8.80;99.90;;;;;;5052519;28;20212;-83
2023/12/12 10:28:38;;;;;;;9.77;2.10;;;8.60;99.90;;;;;;5052142;28;20236;-83
2023/12/12 10:31:07;;;;;;;11.93;2.67;;;8.60;99.90;;;;;;5034123;28;20217;-83
2023/12/12 10:33:34;;;;;;;11.57;2.67;;;8.70;99.90;;;;;;5052141;28;20208;-83
2023/12/12 10:36:03;;;;;;;9.97;2.67;;;8.70;99.90;;;;;;5034759;28;20170;-83
2023/12/12 10:38:28;;;;;;;9.40;2.27;;;8.40;99.90;;;;;;5034170;28;20251;-83
2023/12/12 10:40:54;;;;;;;10.23;2.43;;;8.30;99.90;;;;;;5051442;28;20174;-83
2023/12/12 10:43:20;;;;;;;9.03;2.53;;;8.40;99.90;;;;;;5052217;28;20184;-84
2023/12/12 10:45:47;;;;;;;10.30;2.87;;;9.10;99.90;;;;;;5034234;28;20616;-84
2023/12/12 10:48:18;;;;;;;11.03;3.07;;;9.60;99.90;;;;;;5034117;28;20265;-83
2023/12/12 10:50:48;;;;;;;10.90;2.80;;;9.90;99.90;;;;;;5051374;28;20193;-83
2023/12/12 10:53:15;;;;;;;14.17;2.70;;;10.30;1.00;;;;;;5052084;28;20200;-83
2023/12/12 10:55:41;;;;;;;10.40;2.80;;;10.80;1.00;;;;;;5034369;28;20170;-83
2023/12/12 10:58:08;;;;;;;11.83;3.10;;;10.80;99.90;;;;;;5052194;28;20185;-83
2023/12/12 11:00:34;;;;;;;13.93;3.00;;;10.60;24.30;;;;;;5051283;28;20253;-82
2023/12/12 11:03:00;;;;;;;8.10;2.70;;;10.30;99.90;;;;;;5034280;28;20177;-83
2023/12/12 11:05:27;;;;;;;11.00;2.77;;;10.10;1.00;;;;;;5051801;28;20763;-83
2023/12/12 11:07:53;;;;;;;9.97;3.03;;;10.30;1.00;;;;;;5051374;28;20712;-83
2023/12/12 11:10:22;;;;;;;9.87;2.90;;;10.20;1.00;;;;;;5028264;28;20320;-83
2023/12/12 11:12:58;;;;;;;9.30;2.83;;;10.20;1.00;;;;;;5050102;28;20181;-82
2023/12/12 11:15:26;;;;;;;9.80;2.97;;;10.30;1.00;;;;;;5033873;28;20280;-83
2023/12/12 11:17:52;;;;;;;9.53;2.73;;;10.70;99.90;;;;;;5049899;28;20209;-83
2023/12/12 11:20:18;;;;;;;8.97;2.57;;;11.10;99.90;;;;;;5055380;28;20180;-84
2023/12/12 11:22:50;;;;;;;10.57;2.57;;;11.00;1.00;;;;;;5055771;28;20166;-82
2023/12/12 11:25:20;;;;;;;11.87;2.80;;;11.00;99.90;;;;;;5028674;28;20181;-84
2023/12/12 11:27:48;;;;;;;6.77;2.60;;;10.60;99.90;;;;;;5036111;28;20209;-83
2023/12/12 11:30:15;;;;;;;8.47;2.70;;;10.30;1.00;;;;;;5028314;28;20189;-83
2023/12/12 11:32:42;;;;;;;11.53;2.50;;;10.10;1.00;;;;;;5037559;28;20182;-83
2023/12/12 11:35:25;;;;;;;13.03;2.40;;;9.90;1.00;;;;;;5037741;28;20202;-83
2023/12/12 11:37:52;;;;;;;7.80;2.50;;;9.70;1.00;;;;;;5037991;28;20192;-82
2023/12/12 11:40:18;;;;;;;8.63;2.47;;;9.50;3.70;;;;;;5037925;28;20170;-83
2023/12/12 11:42:46;;;;;;;10.73;2.33;;;9.40;33.40;;;;;;5038929;28;20173;-84
2023/12/12 11:45:28;;;;;;;11.23;2.70;;;9.30;87.90;;;;;;5055524;28;20177;-83
2023/12/12 11:47:54;;;;;;;11.90;2.67;;;9.30;99.90;;;;;;5037689;28;20197;-83
2023/12/12 11:50:25;;;;;;;12.77;2.87;;;9.30;99.90;;;;;;5054580;28;20174;-84
2023/12/12 11:52:51;;;;;;;10.87;2.53;;;9.20;99.90;;;;;;5037676;28;20170;-82
2023/12/12 11:55:22;;;;;;;10.87;2.70;;;9.20;99.90;;;;;;5055321;28;20200;-82
2023/12/12 11:57:48;;;;;;;14.13;2.60;;;9.20;99.90;;;;;;5036894;28;20189;-84
2023/12/12 12:00:20;;;;;;;9.47;2.40;;;9.20;99.90;;;;;;5054058;28;20311;-84
2023/12/12 12:02:45;;;;;;;9.50;2.73;;;9.20;99.90;;;;;;5053391;28;20170;-84
2023/12/12 12:05:11;;;;;;;9.17;2.50;;;9.20;99.90;;;;;;5054175;28;20256;-81
2023/12/12 12:07:38;;;;;;;10.60;2.40;;;9.10;99.90;;;;;;5036852;28;20700;-85
2023/12/12 12:10:05;;;;;;;6.77;2.60;;;9.20;99.90;;;;;;5036331;28;20256;-85
2023/12/12 12:12:31;;;;;;;13.43;3.43;;;9.30;99.90;;;;;;5036871;28;20174;-85
2023/12/12 12:15:05;;;;;;;8.77;2.87;;;9.40;99.90;;;;;;5036853;28;20225;-84
2023/12/12 12:17:35;;;;;;;7.97;3.47;;;9.40;99.90;;;;;;5054527;28;20193;-83
2023/12/12 12:20:01;;;;;;;8.93;2.70;;;9.40;99.90;;;;;;5036127;28;20176;-85
2023/12/12 12:22:27;;;;;;;12.23;3.87;;;9.50;99.90;;;;;;5036218;28;20551;-86
2023/12/12 12:24:53;;;;;;;12.90;3.33;;;9.50;99.90;;;;;;5054324;28;20178;-85
2023/12/12 12:27:18;;;;;;;15.27;4.90;;;9.30;99.90;;;;;;5053886;28;20208;-85
2023/12/12 12:30:00;;;;;;;13.63;4.70;;;9.30;99.90;;;;;;5052791;28;20216;-85
2023/12/12 12:32:26;;;;;;;13.17;2.83;;;9.30;99.90;;;;;;5035563;28;20199;-87
2023/12/12 12:35:12;;;;;;;13.87;3.67;;;9.30;99.90;;;;;;5054027;28;20197;-87
2023/12/12 12:37:38;;;;;;;13.53;6.43;;;9.90;99.90;;;;;;5053379;28;20197;-86
2023/12/12 12:40:06;;;;;;;12.37;2.73;;;10.10;99.90;;;;;;5053559;28;20205;-87
2023/12/12 12:42:35;;;;;;;9.47;2.70;;;10.10;1.00;;;;;;5036109;28;20269;-85
2023/12/12 12:45:06;;;;;;;12.80;7.07;;;9.80;1.00;;;;;;5035956;28;20206;-88
2023/12/12 12:47:32;;;;;;;22.80;9.00;;;9.70;34.10;;;;;;5053426;28;20201;-86